Vichy, Missouri
Current Conditions -  °F | °C
As of 7:53 AM on Monday 24 Nov 2014 (Local Time) from KVIH Reporting Station
Overcast Overcast  
Wind Chill: 24°   Ceiling: 3600
Heat Index: 34°   Visibility: 10mi
Dew Point: 25°   Wind: 15mph
Humidity: 70%   Direction: 280°W
Pressure: 29.62"   Gusts: 23mph
Location:  38.11°N, 91.76°W
Report Text: KVIH 241353Z AUTO 28013G20KT 10SM OVC036 01/M04 A2962 RMK AO2 PK WND 28032/1323 SLP033 T00111039
Loading
Personal Weather Stations






























Interactive Weather Map New forecast layout! Learn more

10-Day Weather Forecast

Advertisements
Track Severe Weather on mobile